createdAt,value
2019-02-21T00:01:06.521Z,6.10
2019-02-21T00:03:36.524Z,6.60
2019-02-21T00:06:06.482Z,6.40
2019-02-21T00:08:36.418Z,6.30
2019-02-21T00:13:36.152Z,7.00
2019-02-21T00:16:06.336Z,6.60
2019-02-21T00:18:36.330Z,6.40
2019-02-21T00:23:35.948Z,6.30
2019-02-21T00:26:05.951Z,6.00
2019-02-21T00:28:35.965Z,6.20
2019-02-21T00:31:06.047Z,6.20
2019-02-21T00:33:36.246Z,6.00
2019-02-21T00:41:06.842Z,6.40
2019-02-21T00:46:06.473Z,6.30
2019-02-21T00:48:36.429Z,6.30
2019-02-21T00:51:06.397Z,6.30
2019-02-21T00:53:36.955Z,6.40
2019-02-21T00:58:36.502Z,7.10
2019-02-21T01:03:36.125Z,6.30
2019-02-21T01:06:06.198Z,6.50
2019-02-21T01:11:07.161Z,6.30
2019-02-21T01:13:37.176Z,6.50
2019-02-21T01:16:07.664Z,6.40
2019-02-21T01:18:38.137Z,5.90
2019-02-21T01:21:08.086Z,6.00
2019-02-21T01:23:40.081Z,6.30
2019-02-21T01:26:10.256Z,5.80
2019-02-21T01:28:40.199Z,6.40
2019-02-21T01:31:10.232Z,6.40
2019-02-21T01:33:40.181Z,6.00
2019-02-21T01:36:10.424Z,6.20
2019-02-21T01:38:40.355Z,6.20
2019-02-21T01:43:40.009Z,6.80
2019-02-21T01:46:10.270Z,5.80
2019-02-21T01:48:40.248Z,5.90
2019-02-21T01:51:10.248Z,6.30
2019-02-21T01:58:39.257Z,6.20
2019-02-21T02:01:10.574Z,6.00
2019-02-21T02:03:40.621Z,5.70
2019-02-21T02:06:10.589Z,6.30
2019-02-21T02:08:40.580Z,5.90
2019-02-21T02:11:10.594Z,6.10
2019-02-21T02:13:41.629Z,6.10
2019-02-21T02:16:11.738Z,6.40
2019-02-21T02:18:41.705Z,6.00
2019-02-21T02:21:12.208Z,6.60
2019-02-21T02:23:42.161Z,5.90
2019-02-21T02:26:12.150Z,6.20
2019-02-21T02:28:42.308Z,6.10
2019-02-21T02:31:21.903Z,6.10
2019-02-21T02:33:43.936Z,6.10
2019-02-21T02:38:43.848Z,6.20
2019-02-21T02:41:14.275Z,5.90
2019-02-21T02:43:44.218Z,6.10
2019-02-21T02:46:14.187Z,6.20
2019-02-21T02:48:44.128Z,6.00
2019-02-21T02:51:14.321Z,5.90
2019-02-21T02:53:44.392Z,6.10
2019-02-21T02:56:14.405Z,6.10
2019-02-21T02:58:45.574Z,6.00
2019-02-21T03:01:15.850Z,6.10
2019-02-21T03:06:15.445Z,6.10
2019-02-21T03:08:45.504Z,5.80
2019-02-21T03:11:15.467Z,5.40
2019-02-21T03:13:46.073Z,5.90
2019-02-21T03:16:16.096Z,6.00
2019-02-21T03:18:47.220Z,6.00
2019-02-21T03:21:17.203Z,6.00
2019-02-21T03:23:47.219Z,6.00
2019-02-21T03:26:17.252Z,5.90
2019-02-21T03:28:47.212Z,6.00
2019-02-21T03:31:17.209Z,6.10
2019-02-21T03:33:47.318Z,6.00
2019-02-21T03:36:17.386Z,6.10
2019-02-21T03:38:47.534Z,6.10
2019-02-21T03:41:17.635Z,6.10
2019-02-21T03:43:47.660Z,6.00
2019-02-21T03:46:17.621Z,6.00
2019-02-21T03:48:47.599Z,6.10
2019-02-21T03:51:17.669Z,6.00
2019-02-21T03:53:47.673Z,6.10
2019-02-21T03:56:17.695Z,6.20
2019-02-21T03:58:47.669Z,6.10
2019-02-21T04:01:17.716Z,6.00
2019-02-21T04:03:47.702Z,6.10
2019-02-21T04:06:17.661Z,6.10
2019-02-21T04:08:47.780Z,6.10
2019-02-21T04:11:17.811Z,6.20
2019-02-21T04:13:47.872Z,5.80
2019-02-21T04:18:47.540Z,5.70
2019-02-21T04:21:17.981Z,5.90
2019-02-21T04:23:47.914Z,5.90
2019-02-21T04:26:17.854Z,5.90
2019-02-21T04:28:48.158Z,5.60
2019-02-21T04:31:18.140Z,5.80
2019-02-21T04:33:48.113Z,5.90
2019-02-21T04:36:18.125Z,5.90
2019-02-21T04:38:48.081Z,6.00
2019-02-21T04:43:47.525Z,5.90
2019-02-21T04:46:17.614Z,5.90
2019-02-21T04:48:47.683Z,6.10
2019-02-21T04:51:17.918Z,5.60
2019-02-21T04:53:48.065Z,6.00
2019-02-21T04:56:18.005Z,6.10
2019-02-21T04:58:47.985Z,6.00
2019-02-21T05:01:17.916Z,6.00
2019-02-21T05:03:47.865Z,6.10
2019-02-21T05:06:18.043Z,6.10
2019-02-21T05:08:48.031Z,6.10
2019-02-21T05:11:18.090Z,6.20
2019-02-21T05:13:48.115Z,6.20
2019-02-21T05:16:18.108Z,6.20
2019-02-21T05:18:48.120Z,6.10
2019-02-21T05:21:19.134Z,6.10
2019-02-21T05:23:49.072Z,6.00
2019-02-21T05:26:20.748Z,6.00
2019-02-21T05:28:50.785Z,5.90
2019-02-21T05:31:31.414Z,6.10
2019-02-21T05:34:05.702Z,6.10
2019-02-21T05:36:40.100Z,6.00
2019-02-21T05:39:20.640Z,6.10
2019-02-21T05:41:52.233Z,6.10
2019-02-21T05:44:23.814Z,6.10
2019-02-21T05:46:58.664Z,6.10
2019-02-21T05:49:31.546Z,6.20
2019-02-21T05:52:15.972Z,6.20
2019-02-21T05:54:47.537Z,6.30
2019-02-21T05:57:31.372Z,6.30
2019-02-21T06:00:15.374Z,6.40
2019-02-21T06:02:58.920Z,6.30
2019-02-21T06:05:36.328Z,6.20
2019-02-21T06:08:26.329Z,6.10
2019-02-21T06:11:17.999Z,6.10
2019-02-21T06:13:52.592Z,6.20
2019-02-21T06:16:32.503Z,6.30
2019-02-21T06:19:19.981Z,6.20
2019-02-21T06:21:54.383Z,6.30
2019-02-21T06:24:33.005Z,6.30
2019-02-21T06:27:07.374Z,6.20
2019-02-21T06:29:39.952Z,6.40
2019-02-21T06:32:14.354Z,6.30
2019-02-21T06:34:43.238Z,6.30
2019-02-21T06:37:17.236Z,6.30
2019-02-21T06:39:47.979Z,6.40
2019-02-21T06:42:17.932Z,6.40
2019-02-21T06:44:47.965Z,6.40
2019-02-21T06:47:17.977Z,6.50
2019-02-21T06:49:48.097Z,6.40
2019-02-21T06:52:18.249Z,6.40
2019-02-21T06:54:50.538Z,6.30
2019-02-21T06:57:20.645Z,6.40
2019-02-21T06:59:53.810Z,6.60
2019-02-21T07:02:23.789Z,6.60
2019-02-21T07:04:53.833Z,6.80
2019-02-21T07:07:23.904Z,6.80
2019-02-21T07:09:53.968Z,7.10
2019-02-21T07:12:24.260Z,7.00
2019-02-21T07:14:54.398Z,7.00
2019-02-21T07:17:24.497Z,7.20
2019-02-21T07:19:54.775Z,7.20
2019-02-21T07:22:24.836Z,7.40
2019-02-21T07:24:56.487Z,7.60
2019-02-21T07:27:26.694Z,7.30
2019-02-21T07:29:56.763Z,7.20
2019-02-21T07:32:26.845Z,7.10
2019-02-21T07:34:56.784Z,7.10
2019-02-21T07:37:26.792Z,7.10
2019-02-21T07:39:57.701Z,7.20
2019-02-21T07:42:27.791Z,7.30
2019-02-21T07:44:59.675Z,7.30
2019-02-21T07:47:29.425Z,7.50
2019-02-21T07:49:59.452Z,7.50
2019-02-21T07:52:29.382Z,7.70
2019-02-21T07:55:02.201Z,7.60
2019-02-21T07:57:30.987Z,7.60
2019-02-21T08:00:01.077Z,7.50
2019-02-21T08:02:31.160Z,7.60
2019-02-21T08:05:02.088Z,7.70
2019-02-21T08:07:34.026Z,7.70
2019-02-21T08:10:06.116Z,7.70
2019-02-21T08:12:36.271Z,7.60
2019-02-21T08:15:11.794Z,7.90
2019-02-21T08:17:41.243Z,8.00
2019-02-21T08:20:12.536Z,7.80
2019-02-21T08:22:42.566Z,7.90
2019-02-21T08:25:12.533Z,8.60
2019-02-21T08:27:42.731Z,7.70
2019-02-21T08:30:16.114Z,7.90
2019-02-21T08:33:03.821Z,8.20
2019-02-21T08:35:33.861Z,8.50
2019-02-21T08:38:03.884Z,8.40
2019-02-21T08:40:34.618Z,8.40
2019-02-21T08:43:04.724Z,8.90
2019-02-21T08:53:04.581Z,9.30
2019-02-21T08:55:34.572Z,8.50
2019-02-21T08:58:04.953Z,8.80
2019-02-21T09:00:35.425Z,8.70
2019-02-21T09:03:05.456Z,8.80
2019-02-21T09:05:36.622Z,8.70
2019-02-21T09:08:06.601Z,8.80
2019-02-21T09:10:36.904Z,8.90
2019-02-21T09:13:11.957Z,8.80
2019-02-21T09:15:41.980Z,8.90
2019-02-21T09:18:12.053Z,8.70
2019-02-21T09:20:41.981Z,9.10
2019-02-21T09:23:12.114Z,8.90
2019-02-21T09:25:42.271Z,9.10
2019-02-21T09:28:12.212Z,9.20
2019-02-21T09:30:51.804Z,9.70
2019-02-21T09:33:21.886Z,9.60
2019-02-21T09:35:56.806Z,9.60
2019-02-21T09:38:26.873Z,9.20
2019-02-21T09:40:57.656Z,9.00
2019-02-21T09:43:27.655Z,9.10
2019-02-21T09:45:57.662Z,9.40
2019-02-21T09:48:27.801Z,9.60
2019-02-21T09:50:57.809Z,9.50
2019-02-21T09:53:27.756Z,9.70
2019-02-21T09:55:57.692Z,9.90
2019-02-21T09:58:27.725Z,9.70
2019-02-21T10:00:57.695Z,9.80
2019-02-21T10:03:27.635Z,10.00
2019-02-21T10:05:57.574Z,10.00
2019-02-21T10:08:27.517Z,9.80
2019-02-21T10:10:57.450Z,9.80
2019-02-21T10:13:27.424Z,10.20
2019-02-21T10:15:57.359Z,10.00
2019-02-21T10:18:28.491Z,10.10
2019-02-21T10:20:58.431Z,10.00
2019-02-21T10:23:28.406Z,9.90
2019-02-21T10:26:00.564Z,10.10
2019-02-21T10:28:32.447Z,10.20
2019-02-21T10:31:02.293Z,10.10
2019-02-21T10:33:32.253Z,10.30
2019-02-21T10:36:02.205Z,10.60
2019-02-21T10:38:32.228Z,10.50
2019-02-21T10:41:03.050Z,10.60
2019-02-21T10:43:33.341Z,10.80
2019-02-21T10:46:03.322Z,10.70
2019-02-21T10:48:33.365Z,10.90
2019-02-21T10:51:03.328Z,10.90
2019-02-21T10:53:33.341Z,11.20
2019-02-21T10:56:03.289Z,11.10
2019-02-21T10:58:33.253Z,11.10
2019-02-21T11:01:03.442Z,10.90
2019-02-21T11:03:33.400Z,11.00
2019-02-21T11:06:03.348Z,11.30
2019-02-21T11:08:33.492Z,11.40
2019-02-21T11:11:03.998Z,11.50
2019-02-21T11:13:33.937Z,11.50
2019-02-21T11:16:03.885Z,11.60
2019-02-21T11:18:33.825Z,11.40
2019-02-21T11:21:03.759Z,11.80
2019-02-21T11:23:33.720Z,11.80
2019-02-21T11:26:03.690Z,11.90
2019-02-21T11:28:33.823Z,12.10
2019-02-21T11:31:04.045Z,11.50
2019-02-21T11:33:33.988Z,13.10
2019-02-21T11:36:03.925Z,13.10
2019-02-21T11:38:33.873Z,13.60
2019-02-21T11:41:03.993Z,12.90
2019-02-21T11:43:34.777Z,12.20
2019-02-21T11:46:05.487Z,12.10
2019-02-21T11:48:36.470Z,11.80
2019-02-21T11:51:07.504Z,11.90
2019-02-21T11:53:38.237Z,12.70
2019-02-21T11:56:08.401Z,12.60
2019-02-21T11:58:38.437Z,12.30
2019-02-21T12:01:09.833Z,12.20
2019-02-21T12:03:39.781Z,12.00
2019-02-21T12:06:09.731Z,11.30
2019-02-21T12:08:39.675Z,10.90
2019-02-21T12:11:09.693Z,10.70
2019-02-21T12:13:39.672Z,11.00
2019-02-21T12:16:09.620Z,10.60
2019-02-21T12:18:39.636Z,10.50
2019-02-21T12:21:09.653Z,10.40
2019-02-21T12:23:39.587Z,10.40
2019-02-21T12:26:09.569Z,10.60
2019-02-21T12:28:39.513Z,10.40
2019-02-21T12:31:09.539Z,10.60
2019-02-21T12:33:39.682Z,10.40
2019-02-21T12:36:09.732Z,10.40
2019-02-21T12:38:39.681Z,10.40
2019-02-21T12:41:09.628Z,10.20
2019-02-21T12:43:40.431Z,10.30
2019-02-21T12:46:10.541Z,10.40
2019-02-21T12:48:40.536Z,10.30
2019-02-21T12:51:10.495Z,10.30
2019-02-21T12:53:40.507Z,10.20
2019-02-21T12:56:10.620Z,10.30
2019-02-21T12:58:40.568Z,10.40
2019-02-21T13:01:10.542Z,10.40
2019-02-21T13:03:40.838Z,10.20
2019-02-21T13:06:10.831Z,10.30
2019-02-21T13:08:40.789Z,10.30
2019-02-21T13:11:10.998Z,10.20
2019-02-21T13:13:41.028Z,10.20
2019-02-21T13:16:10.973Z,10.20
2019-02-21T13:18:41.903Z,10.40
2019-02-21T13:21:11.957Z,10.40
2019-02-21T13:23:42.937Z,10.20
2019-02-21T13:26:13.194Z,10.30
2019-02-21T13:28:43.200Z,10.20
2019-02-21T13:31:13.137Z,10.20
2019-02-21T13:33:43.345Z,10.30
2019-02-21T13:36:13.368Z,10.20
2019-02-21T13:38:43.525Z,10.20
2019-02-21T13:41:13.644Z,10.20
2019-02-21T13:43:44.364Z,10.00
2019-02-21T13:46:14.582Z,10.00
2019-02-21T13:48:44.576Z,10.00
2019-02-21T13:51:14.597Z,10.00
2019-02-21T13:53:44.814Z,10.00
2019-02-21T13:56:14.915Z,10.10
2019-02-21T14:01:15.451Z,10.40
2019-02-21T14:03:45.445Z,10.40
2019-02-21T14:06:15.418Z,10.30
2019-02-21T14:08:45.430Z,10.30
2019-02-21T14:11:15.394Z,10.10
2019-02-21T14:13:45.458Z,10.20
2019-02-21T14:16:15.413Z,10.10
2019-02-21T14:18:45.370Z,10.10
2019-02-21T14:21:15.468Z,10.00
2019-02-21T14:23:45.442Z,9.80
2019-02-21T14:26:15.475Z,9.60
2019-02-21T14:31:15.153Z,10.10
2019-02-21T14:33:46.024Z,9.90
2019-02-21T14:36:19.137Z,9.70
2019-02-21T14:38:47.929Z,9.80
2019-02-21T14:43:50.914Z,9.70
2019-02-21T14:48:50.082Z,9.80
2019-02-21T14:51:20.066Z,9.80
2019-02-21T14:53:49.996Z,9.80
2019-02-21T14:56:20.281Z,9.70
2019-02-21T14:58:54.783Z,9.60
2019-02-21T15:01:24.765Z,9.60
2019-02-21T15:03:54.952Z,9.60
2019-02-21T15:06:27.457Z,9.60
2019-02-21T15:09:04.190Z,9.60
2019-02-21T15:11:35.001Z,9.60
2019-02-21T15:14:04.963Z,9.50
2019-02-21T15:16:36.429Z,9.50
2019-02-21T15:19:06.473Z,9.40
2019-02-21T15:21:36.397Z,9.40
2019-02-21T15:24:06.438Z,9.40
2019-02-21T15:26:36.630Z,9.40
2019-02-21T15:29:08.614Z,9.20
2019-02-21T15:31:38.572Z,9.20
2019-02-21T15:34:08.520Z,9.10
2019-02-21T15:36:39.022Z,9.00
2019-02-21T15:39:09.577Z,8.90
2019-02-21T15:41:39.815Z,8.90
2019-02-21T15:44:10.665Z,9.00
2019-02-21T15:46:40.733Z,8.90
2019-02-21T15:49:10.758Z,8.90
2019-02-21T15:51:42.949Z,8.90
2019-02-21T15:54:12.893Z,8.80
2019-02-21T15:56:42.831Z,8.80
2019-02-21T15:59:13.678Z,8.80
2019-02-21T16:01:47.562Z,8.70
2019-02-21T16:04:15.475Z,8.60
2019-02-21T16:06:51.021Z,8.60
2019-02-21T16:09:17.405Z,8.70
2019-02-21T16:11:47.618Z,8.60
2019-02-21T16:14:21.357Z,8.40
2019-02-21T16:16:51.479Z,8.30
2019-02-21T16:19:21.494Z,8.30
2019-02-21T16:21:51.555Z,8.30
2019-02-21T16:24:22.628Z,8.20
2019-02-21T16:26:52.629Z,8.10
2019-02-21T16:29:22.559Z,8.00
2019-02-21T16:31:52.546Z,8.00
2019-02-21T16:34:22.524Z,8.10
2019-02-21T16:37:02.015Z,8.10
2019-02-21T16:39:24.190Z,8.10
2019-02-21T16:41:54.143Z,8.00
2019-02-21T16:44:24.877Z,8.00
2019-02-21T16:46:55.304Z,7.90
2019-02-21T16:49:25.268Z,7.90
2019-02-21T16:51:55.577Z,7.80
2019-02-21T16:54:25.553Z,7.70
2019-02-21T16:56:55.855Z,7.70
2019-02-21T16:59:25.873Z,7.70
2019-02-21T17:01:55.997Z,7.70
2019-02-21T17:04:26.147Z,7.80
2019-02-21T17:06:57.067Z,7.70
2019-02-21T17:09:26.997Z,7.60
2019-02-21T17:11:56.939Z,7.60
2019-02-21T17:14:26.913Z,7.60
2019-02-21T17:16:56.894Z,7.50
2019-02-21T17:19:26.833Z,7.40
2019-02-21T17:21:56.816Z,7.30
2019-02-21T17:24:26.830Z,7.30
2019-02-21T17:26:57.172Z,7.30
2019-02-21T17:29:27.291Z,7.30
2019-02-21T17:31:57.219Z,7.10
2019-02-21T17:34:27.306Z,7.00
2019-02-21T17:36:57.846Z,7.00
2019-02-21T17:39:28.146Z,7.00
2019-02-21T17:41:58.117Z,6.90
2019-02-21T17:44:31.742Z,6.80
2019-02-21T17:47:01.836Z,6.80
2019-02-21T17:49:31.829Z,6.80
2019-02-21T17:52:01.769Z,6.70
2019-02-21T17:54:31.961Z,6.70
2019-02-21T17:57:02.106Z,6.70
2019-02-21T17:59:32.127Z,6.60
2019-02-21T18:02:02.156Z,6.50
2019-02-21T18:04:32.182Z,6.40
2019-02-21T18:07:02.202Z,6.30
2019-02-21T18:09:32.228Z,6.30
2019-02-21T18:12:02.294Z,6.30
2019-02-21T18:14:32.359Z,6.20
2019-02-21T18:17:02.362Z,6.20
2019-02-21T18:19:32.495Z,6.30
2019-02-21T18:22:02.749Z,6.30
2019-02-21T18:24:32.913Z,6.20
2019-02-21T18:27:02.856Z,6.20
2019-02-21T18:29:32.879Z,6.10
2019-02-21T18:32:04.524Z,6.10
2019-02-21T18:34:34.528Z,6.00
2019-02-21T18:37:04.669Z,6.00
2019-02-21T18:39:34.748Z,6.00
2019-02-21T18:42:05.959Z,6.00
2019-02-21T18:44:36.725Z,5.90
2019-02-21T18:47:08.548Z,5.90
2019-02-21T18:49:38.588Z,5.80
2019-02-21T18:52:08.609Z,5.80
2019-02-21T18:54:38.927Z,5.80
2019-02-21T18:57:08.952Z,5.90
2019-02-21T18:59:38.940Z,5.90
2019-02-21T19:02:08.894Z,5.80
2019-02-21T19:04:38.843Z,5.80
2019-02-21T19:07:08.774Z,5.80
2019-02-21T19:09:38.722Z,5.70
2019-02-21T19:12:08.853Z,5.70
2019-02-21T19:14:38.806Z,5.80
2019-02-21T19:17:08.760Z,5.70
2019-02-21T19:19:38.918Z,5.70
2019-02-21T19:22:09.184Z,5.70
2019-02-21T19:24:39.207Z,5.70
2019-02-21T19:27:09.209Z,5.70
2019-02-21T19:29:39.318Z,5.70
2019-02-21T19:32:09.558Z,5.70
2019-02-21T19:34:48.969Z,5.60
2019-02-21T19:37:18.926Z,5.70
2019-02-21T19:39:49.014Z,5.60
2019-02-21T19:42:19.287Z,5.60
2019-02-21T19:44:50.064Z,5.60
2019-02-21T19:47:20.044Z,5.70
2019-02-21T19:49:50.008Z,5.60
2019-02-21T19:52:20.008Z,5.60
2019-02-21T19:54:50.044Z,5.50
2019-02-21T19:57:20.073Z,5.50
2019-02-21T19:59:49.995Z,5.50
2019-02-21T20:02:20.076Z,5.60
2019-02-21T20:04:49.996Z,5.60
2019-02-21T20:07:20.082Z,5.50
2019-02-21T20:09:50.267Z,5.60
2019-02-21T20:12:20.280Z,5.60
2019-02-21T20:14:50.267Z,5.50
2019-02-21T20:17:20.268Z,5.50
2019-02-21T20:19:50.400Z,5.60
2019-02-21T20:22:20.596Z,5.60
2019-02-21T20:24:50.585Z,5.50
2019-02-21T20:27:20.794Z,5.50
2019-02-21T20:29:50.999Z,5.50
2019-02-21T20:32:21.328Z,5.50
2019-02-21T20:34:51.400Z,5.50
2019-02-21T20:37:21.432Z,5.50
2019-02-21T20:39:51.833Z,5.50
2019-02-21T20:42:22.006Z,5.50
2019-02-21T20:44:53.039Z,5.50
2019-02-21T20:47:23.094Z,5.40
2019-02-21T20:49:53.221Z,5.40
2019-02-21T20:52:23.306Z,5.40
2019-02-21T20:54:53.234Z,5.40
2019-02-21T21:02:25.187Z,5.60
2019-02-21T21:04:55.425Z,5.60
2019-02-21T21:07:25.567Z,5.40
2019-02-21T21:12:25.176Z,5.50
2019-02-21T21:14:55.193Z,5.30
2019-02-21T21:17:25.239Z,5.50
2019-02-21T21:19:55.177Z,5.40
2019-02-21T21:22:25.280Z,5.40
2019-02-21T21:24:55.203Z,5.50
2019-02-21T21:27:25.213Z,5.50
2019-02-21T21:29:55.188Z,5.50
2019-02-21T21:32:25.288Z,5.60
2019-02-21T21:34:55.226Z,5.60
2019-02-21T21:37:25.175Z,5.60
2019-02-21T21:39:55.128Z,5.60
2019-02-21T21:42:25.093Z,5.60
2019-02-21T21:44:55.401Z,5.60
2019-02-21T21:47:25.544Z,5.60
2019-02-21T21:49:55.625Z,5.70
2019-02-21T21:52:25.616Z,5.70
2019-02-21T21:54:55.616Z,5.70
2019-02-21T21:57:25.528Z,5.70
2019-02-21T21:59:55.674Z,5.70
2019-02-21T22:02:25.640Z,5.80
2019-02-21T22:04:55.648Z,5.80
2019-02-21T22:07:26.594Z,5.80
2019-02-21T22:09:56.592Z,5.80
2019-02-21T22:12:26.597Z,5.90
2019-02-21T22:14:56.579Z,5.90
2019-02-21T22:17:26.600Z,5.90
2019-02-21T22:19:56.555Z,5.90
2019-02-21T22:22:26.521Z,6.00
2019-02-21T22:24:56.490Z,6.00
2019-02-21T22:27:26.438Z,6.00
2019-02-21T22:29:56.414Z,6.00
2019-02-21T22:32:26.360Z,6.00
2019-02-21T22:34:56.673Z,6.00
2019-02-21T22:37:26.672Z,6.00
2019-02-21T22:39:56.692Z,6.00
2019-02-21T22:42:26.794Z,6.00
2019-02-21T22:44:56.755Z,6.00
2019-02-21T22:47:26.856Z,6.00
2019-02-21T22:49:56.852Z,6.00
2019-02-21T22:52:27.044Z,6.00
2019-02-21T22:55:09.047Z,6.00
2019-02-21T22:57:28.980Z,5.90
2019-02-21T22:59:58.962Z,5.90
2019-02-21T23:02:31.149Z,5.90
2019-02-21T23:05:07.007Z,6.00
2019-02-21T23:07:39.001Z,6.00
2019-02-21T23:10:08.984Z,6.00
2019-02-21T23:12:39.101Z,6.00
2019-02-21T23:15:09.404Z,6.10
2019-02-21T23:17:39.549Z,6.00
2019-02-21T23:20:09.707Z,6.10
2019-02-21T23:22:39.780Z,6.10
2019-02-21T23:25:09.824Z,6.10
2019-02-21T23:27:39.807Z,6.10
2019-02-21T23:30:10.624Z,6.10
2019-02-21T23:32:40.661Z,6.00
2019-02-21T23:35:12.459Z,6.10
2019-02-21T23:37:42.404Z,6.10
2019-02-21T23:40:12.410Z,6.10
2019-02-21T23:42:42.613Z,6.10
2019-02-21T23:45:12.832Z,6.00
2019-02-21T23:47:49.701Z,6.10
2019-02-21T23:50:16.620Z,6.10
2019-02-21T23:52:46.571Z,6.20
2019-02-21T23:55:16.541Z,6.20
2019-02-21T23:57:47.536Z,6.20
